sensor_id;sensor_type;location;lat;lon;timestamp;P1;durP1;ratioP1;P2;durP2;ratioP2
5961;SDS011;3007;50.770;0.250;2023-08-07T00:02:19;1.63;;;0.90;;
5961;SDS011;3007;50.770;0.250;2023-08-07T00:04:45;2.13;;;1.00;;
5961;SDS011;3007;50.770;0.250;2023-08-07T00:07:14;1.50;;;1.03;;
5961;SDS011;3007;50.770;0.250;2023-08-07T00:09:41;0.80;;;0.80;;
5961;SDS011;3007;50.770;0.250;2023-08-07T00:12:08;1.40;;;0.80;;
5961;SDS011;3007;50.770;0.250;2023-08-07T00:14:35;1.10;;;0.70;;
5961;SDS011;3007;50.770;0.250;2023-08-07T00:17:03;0.73;;;0.70;;
5961;SDS011;3007;50.770;0.250;2023-08-07T00:19:30;0.90;;;0.77;;
5961;SDS011;3007;50.770;0.250;2023-08-07T00:21:58;0.87;;;0.73;;
5961;SDS011;3007;50.770;0.250;2023-08-07T00:24:26;2.83;;;0.90;;
5961;SDS011;3007;50.770;0.250;2023-08-07T00:26:56;1.50;;;0.90;;
5961;SDS011;3007;50.770;0.250;2023-08-07T00:29:23;1.40;;;1.00;;
5961;SDS011;3007;50.770;0.250;2023-08-07T00:31:50;1.20;;;1.10;;
5961;SDS011;3007;50.770;0.250;2023-08-07T00:34:17;2.47;;;0.97;;
5961;SDS011;3007;50.770;0.250;2023-08-07T00:36:44;4.77;;;1.10;;
5961;SDS011;3007;50.770;0.250;2023-08-07T00:39:10;1.30;;;0.90;;
5961;SDS011;3007;50.770;0.250;2023-08-07T00:41:39;1.10;;;1.00;;
5961;SDS011;3007;50.770;0.250;2023-08-07T00:44:05;1.53;;;0.80;;
5961;SDS011;3007;50.770;0.250;2023-08-07T00:46:32;4.40;;;1.20;;
5961;SDS011;3007;50.770;0.250;2023-08-07T00:49:00;1.80;;;0.93;;
5961;SDS011;3007;50.770;0.250;2023-08-07T00:51:27;1.60;;;1.00;;
5961;SDS011;3007;50.770;0.250;2023-08-07T00:53:54;1.00;;;0.90;;
5961;SDS011;3007;50.770;0.250;2023-08-07T00:56:21;2.47;;;1.07;;
5961;SDS011;3007;50.770;0.250;2023-08-07T00:58:50;2.50;;;0.90;;
5961;SDS011;3007;50.770;0.250;2023-08-07T01:01:18;1.60;;;1.00;;
5961;SDS011;3007;50.770;0.250;2023-08-07T01:03:45;2.17;;;0.90;;
5961;SDS011;3007;50.770;0.250;2023-08-07T01:06:12;1.40;;;0.97;;
5961;SDS011;3007;50.770;0.250;2023-08-07T01:08:39;2.17;;;1.30;;
5961;SDS011;3007;50.770;0.250;2023-08-07T01:11:08;1.30;;;1.03;;
5961;SDS011;3007;50.770;0.250;2023-08-07T01:13:45;3.20;;;1.13;;
5961;SDS011;3007;50.770;0.250;2023-08-07T01:16:21;1.70;;;1.20;;
5961;SDS011;3007;50.770;0.250;2023-08-07T01:18:52;2.67;;;1.10;;
5961;SDS011;3007;50.770;0.250;2023-08-07T01:21:21;2.43;;;1.30;;
5961;SDS011;3007;50.770;0.250;2023-08-07T01:23:50;1.90;;;1.17;;
5961;SDS011;3007;50.770;0.250;2023-08-07T01:26:17;1.70;;;1.17;;
5961;SDS011;3007;50.770;0.250;2023-08-07T01:28:46;1.97;;;1.10;;
5961;SDS011;3007;50.770;0.250;2023-08-07T01:31:20;1.20;;;1.00;;
5961;SDS011;3007;50.770;0.250;2023-08-07T01:33:52;3.30;;;1.30;;
5961;SDS011;3007;50.770;0.250;2023-08-07T01:36:24;2.17;;;1.07;;
5961;SDS011;3007;50.770;0.250;2023-08-07T01:38:55;1.93;;;1.27;;
5961;SDS011;3007;50.770;0.250;2023-08-07T01:41:23;1.67;;;1.10;;
5961;SDS011;3007;50.770;0.250;2023-08-07T01:43:50;1.70;;;1.30;;
5961;SDS011;3007;50.770;0.250;2023-08-07T01:46:18;1.53;;;1.30;;
5961;SDS011;3007;50.770;0.250;2023-08-07T01:48:45;2.13;;;1.50;;
5961;SDS011;3007;50.770;0.250;2023-08-07T01:51:12;1.20;;;1.10;;
5961;SDS011;3007;50.770;0.250;2023-08-07T01:53:39;3.53;;;1.30;;
5961;SDS011;3007;50.770;0.250;2023-08-07T01:56:07;3.03;;;1.37;;
5961;SDS011;3007;50.770;0.250;2023-08-07T01:58:34;1.40;;;1.30;;
5961;SDS011;3007;50.770;0.250;2023-08-07T02:01:00;2.33;;;1.20;;
5961;SDS011;3007;50.770;0.250;2023-08-07T02:03:27;2.37;;;1.40;;
5961;SDS011;3007;50.770;0.250;2023-08-07T02:05:54;1.87;;;1.17;;
5961;SDS011;3007;50.770;0.250;2023-08-07T02:08:21;1.37;;;1.20;;
5961;SDS011;3007;50.770;0.250;2023-08-07T02:10:49;2.33;;;1.40;;
5961;SDS011;3007;50.770;0.250;2023-08-07T02:13:17;1.90;;;1.57;;
5961;SDS011;3007;50.770;0.250;2023-08-07T02:15:44;2.53;;;1.30;;
5961;SDS011;3007;50.770;0.250;2023-08-07T02:18:11;2.97;;;1.40;;
5961;SDS011;3007;50.770;0.250;2023-08-07T02:20:38;3.20;;;1.53;;
5961;SDS011;3007;50.770;0.250;2023-08-07T02:23:05;1.67;;;1.13;;
5961;SDS011;3007;50.770;0.250;2023-08-07T02:25:31;1.40;;;1.20;;
5961;SDS011;3007;50.770;0.250;2023-08-07T02:27:58;4.57;;;1.40;;
5961;SDS011;3007;50.770;0.250;2023-08-07T02:30:27;4.90;;;1.70;;
5961;SDS011;3007;50.770;0.250;2023-08-07T02:32:54;2.17;;;1.53;;
5961;SDS011;3007;50.770;0.250;2023-08-07T02:35:21;1.50;;;1.20;;
5961;SDS011;3007;50.770;0.250;2023-08-07T02:37:47;2.07;;;1.23;;
5961;SDS011;3007;50.770;0.250;2023-08-07T02:40:15;2.17;;;1.47;;
5961;SDS011;3007;50.770;0.250;2023-08-07T02:42:44;2.73;;;1.20;;
5961;SDS011;3007;50.770;0.250;2023-08-07T02:45:11;1.60;;;1.30;;
5961;SDS011;3007;50.770;0.250;2023-08-07T02:47:39;2.20;;;1.23;;
5961;SDS011;3007;50.770;0.250;2023-08-07T02:50:07;1.93;;;1.30;;
5961;SDS011;3007;50.770;0.250;2023-08-07T02:52:34;2.60;;;1.30;;
5961;SDS011;3007;50.770;0.250;2023-08-07T02:55:01;1.37;;;1.27;;
5961;SDS011;3007;50.770;0.250;2023-08-07T02:57:28;1.50;;;1.20;;
5961;SDS011;3007;50.770;0.250;2023-08-07T02:59:55;3.07;;;1.40;;
5961;SDS011;3007;50.770;0.250;2023-08-07T03:02:22;2.83;;;1.40;;
5961;SDS011;3007;50.770;0.250;2023-08-07T03:04:50;1.87;;;1.40;;
5961;SDS011;3007;50.770;0.250;2023-08-07T03:07:17;2.57;;;1.47;;
5961;SDS011;3007;50.770;0.250;2023-08-07T03:09:45;1.73;;;1.33;;
5961;SDS011;3007;50.770;0.250;2023-08-07T03:12:13;2.23;;;1.47;;
5961;SDS011;3007;50.770;0.250;2023-08-07T03:14:42;1.73;;;1.53;;
5961;SDS011;3007;50.770;0.250;2023-08-07T03:17:09;2.73;;;1.40;;
5961;SDS011;3007;50.770;0.250;2023-08-07T03:19:36;3.47;;;1.60;;
5961;SDS011;3007;50.770;0.250;2023-08-07T03:22:05;3.67;;;1.67;;
5961;SDS011;3007;50.770;0.250;2023-08-07T03:24:32;2.83;;;1.30;;
5961;SDS011;3007;50.770;0.250;2023-08-07T03:26:59;1.97;;;1.63;;
5961;SDS011;3007;50.770;0.250;2023-08-07T03:29:26;1.67;;;1.30;;
5961;SDS011;3007;50.770;0.250;2023-08-07T03:31:53;4.13;;;1.43;;
5961;SDS011;3007;50.770;0.250;2023-08-07T03:34:20;1.90;;;1.60;;
5961;SDS011;3007;50.770;0.250;2023-08-07T03:36:47;3.43;;;1.60;;
5961;SDS011;3007;50.770;0.250;2023-08-07T03:39:16;1.53;;;1.20;;
5961;SDS011;3007;50.770;0.250;2023-08-07T03:41:43;2.90;;;1.47;;
5961;SDS011;3007;50.770;0.250;2023-08-07T03:44:10;2.40;;;1.37;;
5961;SDS011;3007;50.770;0.250;2023-08-07T03:46:37;3.83;;;1.60;;
5961;SDS011;3007;50.770;0.250;2023-08-07T03:49:05;1.80;;;1.40;;
5961;SDS011;3007;50.770;0.250;2023-08-07T03:51:32;2.53;;;1.67;;
5961;SDS011;3007;50.770;0.250;2023-08-07T03:53:59;3.10;;;1.70;;
5961;SDS011;3007;50.770;0.250;2023-08-07T03:56:27;2.87;;;1.77;;
5961;SDS011;3007;50.770;0.250;2023-08-07T03:58:57;2.30;;;1.50;;
5961;SDS011;3007;50.770;0.250;2023-08-07T04:01:24;4.13;;;1.60;;
5961;SDS011;3007;50.770;0.250;2023-08-07T04:03:51;1.80;;;1.67;;
5961;SDS011;3007;50.770;0.250;2023-08-07T04:06:18;3.30;;;1.43;;
5961;SDS011;3007;50.770;0.250;2023-08-07T04:08:46;4.00;;;2.10;;
5961;SDS011;3007;50.770;0.250;2023-08-07T04:11:13;1.93;;;1.60;;
5961;SDS011;3007;50.770;0.250;2023-08-07T04:13:42;2.17;;;1.40;;
5961;SDS011;3007;50.770;0.250;2023-08-07T04:16:09;3.23;;;1.43;;
5961;SDS011;3007;50.770;0.250;2023-08-07T04:18:35;4.43;;;1.77;;
5961;SDS011;3007;50.770;0.250;2023-08-07T04:21:02;2.23;;;1.70;;
5961;SDS011;3007;50.770;0.250;2023-08-07T04:23:29;2.47;;;1.77;;
5961;SDS011;3007;50.770;0.250;2023-08-07T04:25:57;1.60;;;1.50;;
5961;SDS011;3007;50.770;0.250;2023-08-07T04:28:24;1.97;;;1.47;;
5961;SDS011;3007;50.770;0.250;2023-08-07T04:30:52;4.37;;;2.20;;
5961;SDS011;3007;50.770;0.250;2023-08-07T04:33:19;2.23;;;1.37;;
5961;SDS011;3007;50.770;0.250;2023-08-07T04:35:47;1.60;;;1.40;;
5961;SDS011;3007;50.770;0.250;2023-08-07T04:38:14;2.70;;;1.30;;
5961;SDS011;3007;50.770;0.250;2023-08-07T04:40:45;3.33;;;1.40;;
5961;SDS011;3007;50.770;0.250;2023-08-07T04:43:12;4.23;;;1.90;;
5961;SDS011;3007;50.770;0.250;2023-08-07T04:45:39;3.90;;;1.60;;
5961;SDS011;3007;50.770;0.250;2023-08-07T04:48:08;3.57;;;1.57;;
5961;SDS011;3007;50.770;0.250;2023-08-07T04:50:35;2.20;;;1.40;;
5961;SDS011;3007;50.770;0.250;2023-08-07T04:53:02;1.70;;;1.60;;
5961;SDS011;3007;50.770;0.250;2023-08-07T04:55:30;2.93;;;1.60;;
5961;SDS011;3007;50.770;0.250;2023-08-07T04:57:57;2.17;;;1.57;;
5961;SDS011;3007;50.770;0.250;2023-08-07T05:00:24;2.77;;;1.43;;
5961;SDS011;3007;50.770;0.250;2023-08-07T05:02:52;2.23;;;1.77;;
5961;SDS011;3007;50.770;0.250;2023-08-07T05:05:20;4.47;;;1.60;;
5961;SDS011;3007;50.770;0.250;2023-08-07T05:07:48;3.80;;;1.60;;
5961;SDS011;3007;50.770;0.250;2023-08-07T05:10:15;3.13;;;1.57;;
5961;SDS011;3007;50.770;0.250;2023-08-07T05:12:42;3.27;;;1.70;;
5961;SDS011;3007;50.770;0.250;2023-08-07T05:15:09;2.10;;;1.40;;
5961;SDS011;3007;50.770;0.250;2023-08-07T05:17:36;2.78;;;1.38;;
5961;SDS011;3007;50.770;0.250;2023-08-07T05:20:04;2.22;;;1.35;;
5961;SDS011;3007;50.770;0.250;2023-08-07T05:22:33;2.90;;;1.48;;
5961;SDS011;3007;50.770;0.250;2023-08-07T05:25:00;2.10;;;1.25;;
5961;SDS011;3007;50.770;0.250;2023-08-07T05:27:27;2.85;;;1.10;;
5961;SDS011;3007;50.770;0.250;2023-08-07T05:29:55;2.47;;;1.42;;
5961;SDS011;3007;50.770;0.250;2023-08-07T05:32:21;2.38;;;1.23;;
5961;SDS011;3007;50.770;0.250;2023-08-07T05:34:48;2.85;;;1.55;;
5961;SDS011;3007;50.770;0.250;2023-08-07T05:37:16;2.92;;;1.38;;
5961;SDS011;3007;50.770;0.250;2023-08-07T05:39:45;3.15;;;1.48;;
5961;SDS011;3007;50.770;0.250;2023-08-07T05:42:12;2.90;;;1.25;;
5961;SDS011;3007;50.770;0.250;2023-08-07T05:44:39;3.55;;;1.50;;
5961;SDS011;3007;50.770;0.250;2023-08-07T05:47:06;2.33;;;1.38;;
5961;SDS011;3007;50.770;0.250;2023-08-07T05:49:34;2.35;;;1.48;;
5961;SDS011;3007;50.770;0.250;2023-08-07T05:52:00;2.95;;;1.50;;
5961;SDS011;3007;50.770;0.250;2023-08-07T05:54:27;3.22;;;1.27;;
5961;SDS011;3007;50.770;0.250;2023-08-07T05:56:56;2.10;;;1.30;;
5961;SDS011;3007;50.770;0.250;2023-08-07T05:59:22;1.48;;;1.23;;
5961;SDS011;3007;50.770;0.250;2023-08-07T06:01:49;1.38;;;1.10;;
5961;SDS011;3007;50.770;0.250;2023-08-07T06:04:17;2.30;;;1.10;;
5961;SDS011;3007;50.770;0.250;2023-08-07T06:06:44;2.72;;;1.40;;
5961;SDS011;3007;50.770;0.250;2023-08-07T06:09:11;2.22;;;1.40;;
5961;SDS011;3007;50.770;0.250;2023-08-07T06:11:40;1.70;;;1.13;;
5961;SDS011;3007;50.770;0.250;2023-08-07T06:14:08;1.77;;;1.30;;
5961;SDS011;3007;50.770;0.250;2023-08-07T06:16:35;1.90;;;1.30;;
5961;SDS011;3007;50.770;0.250;2023-08-07T06:19:02;2.10;;;1.42;;
5961;SDS011;3007;50.770;0.250;2023-08-07T06:21:29;2.05;;;1.40;;
5961;SDS011;3007;50.770;0.250;2023-08-07T06:23:56;2.95;;;1.50;;
5961;SDS011;3007;50.770;0.250;2023-08-07T06:26:23;2.55;;;1.50;;
5961;SDS011;3007;50.770;0.250;2023-08-07T06:28:49;2.33;;;1.48;;
5961;SDS011;3007;50.770;0.250;2023-08-07T06:31:18;2.78;;;1.50;;
5961;SDS011;3007;50.770;0.250;2023-08-07T06:33:45;2.45;;;1.50;;
5961;SDS011;3007;50.770;0.250;2023-08-07T06:36:12;2.33;;;1.40;;
5961;SDS011;3007;50.770;0.250;2023-08-07T06:38:38;2.85;;;1.20;;
5961;SDS011;3007;50.770;0.250;2023-08-07T06:41:05;3.08;;;1.25;;
5961;SDS011;3007;50.770;0.250;2023-08-07T06:43:32;2.70;;;1.33;;
5961;SDS011;3007;50.770;0.250;2023-08-07T06:45:59;2.65;;;1.35;;
5961;SDS011;3007;50.770;0.250;2023-08-07T06:48:27;2.67;;;1.40;;
5961;SDS011;3007;50.770;0.250;2023-08-07T06:50:54;2.40;;;1.30;;
5961;SDS011;3007;50.770;0.250;2023-08-07T06:53:21;2.30;;;1.20;;
5961;SDS011;3007;50.770;0.250;2023-08-07T06:55:48;1.98;;;1.30;;
5961;SDS011;3007;50.770;0.250;2023-08-07T06:58:15;2.10;;;1.55;;
5961;SDS011;3007;50.770;0.250;2023-08-07T07:00:41;3.17;;;1.30;;
5961;SDS011;3007;50.770;0.250;2023-08-07T07:03:08;1.50;;;1.13;;
5961;SDS011;3007;50.770;0.250;2023-08-07T07:05:37;3.42;;;1.50;;
5961;SDS011;3007;50.770;0.250;2023-08-07T07:08:04;3.38;;;1.60;;
5961;SDS011;3007;50.770;0.250;2023-08-07T07:10:31;4.70;;;1.50;;
5961;SDS011;3007;50.770;0.250;2023-08-07T07:12:58;2.13;;;1.13;;
5961;SDS011;3007;50.770;0.250;2023-08-07T07:15:24;2.08;;;1.20;;
5961;SDS011;3007;50.770;0.250;2023-08-07T07:17:51;2.22;;;1.40;;
5961;SDS011;3007;50.770;0.250;2023-08-07T07:20:18;2.55;;;1.60;;
5961;SDS011;3007;50.770;0.250;2023-08-07T07:22:47;2.33;;;1.30;;
5961;SDS011;3007;50.770;0.250;2023-08-07T07:25:13;2.13;;;1.20;;
5961;SDS011;3007;50.770;0.250;2023-08-07T07:27:40;2.58;;;1.30;;
5961;SDS011;3007;50.770;0.250;2023-08-07T07:30:07;1.83;;;1.55;;
5961;SDS011;3007;50.770;0.250;2023-08-07T07:32:35;2.75;;;1.40;;
5961;SDS011;3007;50.770;0.250;2023-08-07T07:35:02;1.92;;;1.30;;
5961;SDS011;3007;50.770;0.250;2023-08-07T07:37:29;3.63;;;1.40;;
5961;SDS011;3007;50.770;0.250;2023-08-07T07:39:58;1.85;;;1.17;;
5961;SDS011;3007;50.770;0.250;2023-08-07T07:42:25;1.92;;;1.17;;
5961;SDS011;3007;50.770;0.250;2023-08-07T07:44:52;2.40;;;1.40;;
5961;SDS011;3007;50.770;0.250;2023-08-07T07:47:19;1.92;;;1.30;;
5961;SDS011;3007;50.770;0.250;2023-08-07T07:49:46;2.35;;;1.30;;
5961;SDS011;3007;50.770;0.250;2023-08-07T07:52:15;2.30;;;1.60;;
5961;SDS011;3007;50.770;0.250;2023-08-07T07:54:42;3.20;;;1.40;;
5961;SDS011;3007;50.770;0.250;2023-08-07T07:57:10;3.47;;;1.35;;
5961;SDS011;3007;50.770;0.250;2023-08-07T07:59:37;2.30;;;1.30;;
5961;SDS011;3007;50.770;0.250;2023-08-07T08:02:04;1.45;;;1.20;;
5961;SDS011;3007;50.770;0.250;2023-08-07T08:04:32;2.80;;;1.40;;
5961;SDS011;3007;50.770;0.250;2023-08-07T08:07:00;1.88;;;1.20;;
5961;SDS011;3007;50.770;0.250;2023-08-07T08:09:28;3.55;;;1.83;;
5961;SDS011;3007;50.770;0.250;2023-08-07T08:11:55;2.60;;;1.25;;
5961;SDS011;3007;50.770;0.250;2023-08-07T08:14:23;1.65;;;1.10;;
5961;SDS011;3007;50.770;0.250;2023-08-07T08:16:50;2.55;;;1.17;;
5961;SDS011;3007;50.770;0.250;2023-08-07T08:19:17;1.55;;;1.20;;
5961;SDS011;3007;50.770;0.250;2023-08-07T08:21:44;1.95;;;1.30;;
5961;SDS011;3007;50.770;0.250;2023-08-07T08:24:11;1.90;;;1.08;;
5961;SDS011;3007;50.770;0.250;2023-08-07T08:26:38;2.17;;;1.50;;
5961;SDS011;3007;50.770;0.250;2023-08-07T08:29:05;1.40;;;1.20;;
5961;SDS011;3007;50.770;0.250;2023-08-07T08:31:34;2.08;;;1.23;;
5961;SDS011;3007;50.770;0.250;2023-08-07T08:34:01;3.13;;;1.15;;
5961;SDS011;3007;50.770;0.250;2023-08-07T08:36:28;2.92;;;1.33;;
5961;SDS011;3007;50.770;0.250;2023-08-07T08:38:57;3.50;;;1.25;;
5961;SDS011;3007;50.770;0.250;2023-08-07T08:41:24;4.40;;;1.67;;
5961;SDS011;3007;50.770;0.250;2023-08-07T08:43:52;1.30;;;0.98;;
5961;SDS011;3007;50.770;0.250;2023-08-07T08:46:20;1.42;;;1.08;;
5961;SDS011;3007;50.770;0.250;2023-08-07T08:48:51;2.83;;;1.33;;
5961;SDS011;3007;50.770;0.250;2023-08-07T08:51:23;2.10;;;1.25;;
5961;SDS011;3007;50.770;0.250;2023-08-07T08:53:51;2.47;;;1.30;;
5961;SDS011;3007;50.770;0.250;2023-08-07T08:56:21;4.15;;;1.50;;
5961;SDS011;3007;50.770;0.250;2023-08-07T08:58:49;3.67;;;1.42;;
5961;SDS011;3007;50.770;0.250;2023-08-07T09:01:17;3.30;;;1.70;;
5961;SDS011;3007;50.770;0.250;2023-08-07T09:03:44;3.20;;;1.30;;
5961;SDS011;3007;50.770;0.250;2023-08-07T09:06:13;3.30;;;1.30;;
5961;SDS011;3007;50.770;0.250;2023-08-07T09:08:40;3.00;;;1.30;;
5961;SDS011;3007;50.770;0.250;2023-08-07T09:11:09;2.70;;;1.40;;
5961;SDS011;3007;50.770;0.250;2023-08-07T09:13:37;4.55;;;1.60;;
5961;SDS011;3007;50.770;0.250;2023-08-07T09:16:05;3.08;;;1.60;;
5961;SDS011;3007;50.770;0.250;2023-08-07T09:18:34;2.38;;;1.63;;
5961;SDS011;3007;50.770;0.250;2023-08-07T09:21:01;3.95;;;1.80;;
5961;SDS011;3007;50.770;0.250;2023-08-07T09:23:30;5.97;;;1.65;;
5961;SDS011;3007;50.770;0.250;2023-08-07T09:26:00;3.08;;;1.33;;
5961;SDS011;3007;50.770;0.250;2023-08-07T09:28:29;2.33;;;1.42;;
5961;SDS011;3007;50.770;0.250;2023-08-07T09:30:57;2.75;;;1.23;;
5961;SDS011;3007;50.770;0.250;2023-08-07T09:33:27;2.28;;;1.27;;
5961;SDS011;3007;50.770;0.250;2023-08-07T09:35:57;3.80;;;1.42;;
5961;SDS011;3007;50.770;0.250;2023-08-07T09:38:26;3.72;;;1.55;;
5961;SDS011;3007;50.770;0.250;2023-08-07T09:40:58;3.15;;;1.33;;
5961;SDS011;3007;50.770;0.250;2023-08-07T09:43:25;1.48;;;1.20;;
5961;SDS011;3007;50.770;0.250;2023-08-07T09:45:52;3.47;;;1.38;;
5961;SDS011;3007;50.770;0.250;2023-08-07T09:48:27;2.72;;;1.48;;
5961;SDS011;3007;50.770;0.250;2023-08-07T09:50:54;2.83;;;1.55;;
5961;SDS011;3007;50.770;0.250;2023-08-07T09:53:26;1.60;;;0.95;;
5961;SDS011;3007;50.770;0.250;2023-08-07T09:55:53;3.60;;;1.42;;
5961;SDS011;3007;50.770;0.250;2023-08-07T09:58:22;3.53;;;1.40;;
5961;SDS011;3007;50.770;0.250;2023-08-07T10:00:49;4.93;;;1.60;;
5961;SDS011;3007;50.770;0.250;2023-08-07T10:03:18;3.22;;;1.35;;
5961;SDS011;3007;50.770;0.250;2023-08-07T10:05:45;2.67;;;1.23;;
5961;SDS011;3007;50.770;0.250;2023-08-07T10:08:13;1.20;;;1.10;;
5961;SDS011;3007;50.770;0.250;2023-08-07T10:10:41;4.05;;;1.65;;
5961;SDS011;3007;50.770;0.250;2023-08-07T10:13:09;5.03;;;1.65;;
5961;SDS011;3007;50.770;0.250;2023-08-07T10:15:40;2.35;;;1.40;;
5961;SDS011;3007;50.770;0.250;2023-08-07T10:18:07;3.40;;;1.73;;
5961;SDS011;3007;50.770;0.250;2023-08-07T10:20:34;1.77;;;1.30;;
5961;SDS011;3007;50.770;0.250;2023-08-07T10:23:04;1.45;;;1.20;;
5961;SDS011;3007;50.770;0.250;2023-08-07T10:25:34;2.47;;;1.40;;
5961;SDS011;3007;50.770;0.250;2023-08-07T10:28:03;2.95;;;1.52;;
5961;SDS011;3007;50.770;0.250;2023-08-07T10:30:32;2.30;;;1.58;;
5961;SDS011;3007;50.770;0.250;2023-08-07T10:33:01;2.65;;;1.55;;
5961;SDS011;3007;50.770;0.250;2023-08-07T10:35:30;3.72;;;1.42;;
5961;SDS011;3007;50.770;0.250;2023-08-07T10:38:04;3.88;;;1.50;;
5961;SDS011;3007;50.770;0.250;2023-08-07T10:40:33;4.57;;;1.23;;
5961;SDS011;3007;50.770;0.250;2023-08-07T10:43:11;2.05;;;1.25;;
5961;SDS011;3007;50.770;0.250;2023-08-07T10:45:39;2.42;;;1.30;;
5961;SDS011;3007;50.770;0.250;2023-08-07T10:48:08;3.47;;;1.55;;
5961;SDS011;3007;50.770;0.250;2023-08-07T10:50:47;2.38;;;1.20;;
5961;SDS011;3007;50.770;0.250;2023-08-07T10:53:19;3.70;;;1.48;;
5961;SDS011;3007;50.770;0.250;2023-08-07T10:55:47;1.95;;;1.00;;
5961;SDS011;3007;50.770;0.250;2023-08-07T10:58:21;2.03;;;1.05;;
5961;SDS011;3007;50.770;0.250;2023-08-07T11:00:49;6.80;;;1.67;;
5961;SDS011;3007;50.770;0.250;2023-08-07T11:03:21;3.63;;;1.65;;
5961;SDS011;3007;50.770;0.250;2023-08-07T11:05:53;2.45;;;1.23;;
5961;SDS011;3007;50.770;0.250;2023-08-07T11:08:21;4.40;;;1.45;;
5961;SDS011;3007;50.770;0.250;2023-08-07T11:10:49;1.98;;;1.08;;
5961;SDS011;3007;50.770;0.250;2023-08-07T11:13:17;2.20;;;1.30;;
5961;SDS011;3007;50.770;0.250;2023-08-07T11:15:45;2.08;;;1.35;;
5961;SDS011;3007;50.770;0.250;2023-08-07T11:18:12;2.22;;;1.27;;
5961;SDS011;3007;50.770;0.250;2023-08-07T11:20:43;1.95;;;1.17;;
5961;SDS011;3007;50.770;0.250;2023-08-07T11:23:11;2.35;;;1.27;;
5961;SDS011;3007;50.770;0.250;2023-08-07T11:25:37;1.98;;;1.00;;
5961;SDS011;3007;50.770;0.250;2023-08-07T11:28:04;1.80;;;0.98;;
5961;SDS011;3007;50.770;0.250;2023-08-07T11:30:33;2.25;;;1.13;;
5961;SDS011;3007;50.770;0.250;2023-08-07T11:33:00;1.98;;;0.82;;
5961;SDS011;3007;50.770;0.250;2023-08-07T11:35:27;3.10;;;1.08;;
5961;SDS011;3007;50.770;0.250;2023-08-07T11:37:56;2.28;;;1.10;;
5961;SDS011;3007;50.770;0.250;2023-08-07T11:40:23;2.97;;;1.40;;
5961;SDS011;3007;50.770;0.250;2023-08-07T11:42:50;4.85;;;1.45;;
5961;SDS011;3007;50.770;0.250;2023-08-07T11:45:17;3.72;;;1.20;;
5961;SDS011;3007;50.770;0.250;2023-08-07T11:47:44;2.20;;;1.20;;
5961;SDS011;3007;50.770;0.250;2023-08-07T11:50:11;2.47;;;0.95;;
5961;SDS011;3007;50.770;0.250;2023-08-07T11:52:40;3.58;;;1.20;;
5961;SDS011;3007;50.770;0.250;2023-08-07T11:55:08;3.47;;;1.33;;
5961;SDS011;3007;50.770;0.250;2023-08-07T11:57:37;3.60;;;1.10;;
5961;SDS011;3007;50.770;0.250;2023-08-07T12:00:06;4.70;;;1.40;;
5961;SDS011;3007;50.770;0.250;2023-08-07T12:02:38;1.77;;;1.17;;
5961;SDS011;3007;50.770;0.250;2023-08-07T12:05:08;3.47;;;1.38;;
5961;SDS011;3007;50.770;0.250;2023-08-07T12:07:37;1.58;;;0.95;;
5961;SDS011;3007;50.770;0.250;2023-08-07T12:10:06;3.28;;;1.02;;
5961;SDS011;3007;50.770;0.250;2023-08-07T12:12:36;2.60;;;1.33;;
5961;SDS011;3007;50.770;0.250;2023-08-07T12:15:03;3.55;;;1.38;;
5961;SDS011;3007;50.770;0.250;2023-08-07T12:17:32;2.03;;;1.20;;
5961;SDS011;3007;50.770;0.250;2023-08-07T12:19:59;2.53;;;1.42;;
5961;SDS011;3007;50.770;0.250;2023-08-07T12:22:27;3.80;;;1.30;;
5961;SDS011;3007;50.770;0.250;2023-08-07T12:24:54;3.33;;;1.60;;
5961;SDS011;3007;50.770;0.250;2023-08-07T12:27:22;2.28;;;1.10;;
5961;SDS011;3007;50.770;0.250;2023-08-07T12:29:49;3.13;;;1.40;;
5961;SDS011;3007;50.770;0.250;2023-08-07T12:32:16;5.38;;;1.20;;
5961;SDS011;3007;50.770;0.250;2023-08-07T12:34:43;3.85;;;1.50;;
5961;SDS011;3007;50.770;0.250;2023-08-07T12:37:09;7.65;;;1.90;;
5961;SDS011;3007;50.770;0.250;2023-08-07T12:39:36;4.07;;;1.63;;
5961;SDS011;3007;50.770;0.250;2023-08-07T12:42:03;4.75;;;1.63;;
5961;SDS011;3007;50.770;0.250;2023-08-07T12:44:32;3.20;;;1.30;;
5961;SDS011;3007;50.770;0.250;2023-08-07T12:46:59;3.53;;;1.70;;
5961;SDS011;3007;50.770;0.250;2023-08-07T12:49:26;4.38;;;1.80;;
5961;SDS011;3007;50.770;0.250;2023-08-07T12:51:53;3.25;;;1.75;;
5961;SDS011;3007;50.770;0.250;2023-08-07T12:54:21;4.90;;;1.67;;
5961;SDS011;3007;50.770;0.250;2023-08-07T12:56:48;3.47;;;1.73;;
5961;SDS011;3007;50.770;0.250;2023-08-07T12:59:15;4.60;;;1.85;;
5961;SDS011;3007;50.770;0.250;2023-08-07T13:01:44;3.63;;;1.60;;
5961;SDS011;3007;50.770;0.250;2023-08-07T13:04:10;4.63;;;2.00;;
5961;SDS011;3007;50.770;0.250;2023-08-07T13:06:40;4.20;;;1.55;;
5961;SDS011;3007;50.770;0.250;2023-08-07T13:09:07;7.03;;;1.90;;
5961;SDS011;3007;50.770;0.250;2023-08-07T13:11:34;3.50;;;1.42;;
5961;SDS011;3007;50.770;0.250;2023-08-07T13:14:00;4.75;;;1.60;;
5961;SDS011;3007;50.770;0.250;2023-08-07T13:16:27;4.90;;;1.75;;
5961;SDS011;3007;50.770;0.250;2023-08-07T13:18:55;5.25;;;2.08;;
5961;SDS011;3007;50.770;0.250;2023-08-07T13:21:22;5.30;;;1.77;;
5961;SDS011;3007;50.770;0.250;2023-08-07T13:23:49;4.85;;;1.63;;
5961;SDS011;3007;50.770;0.250;2023-08-07T13:26:16;3.83;;;2.00;;
5961;SDS011;3007;50.770;0.250;2023-08-07T13:28:43;5.28;;;1.90;;
5961;SDS011;3007;50.770;0.250;2023-08-07T13:31:10;3.83;;;1.70;;
5961;SDS011;3007;50.770;0.250;2023-08-07T13:33:37;3.60;;;1.70;;
5961;SDS011;3007;50.770;0.250;2023-08-07T13:36:05;5.20;;;1.75;;
5961;SDS011;3007;50.770;0.250;2023-08-07T13:38:32;4.72;;;1.83;;
5961;SDS011;3007;50.770;0.250;2023-08-07T13:40:59;4.05;;;1.85;;
5961;SDS011;3007;50.770;0.250;2023-08-07T13:43:26;2.78;;;1.60;;
5961;SDS011;3007;50.770;0.250;2023-08-07T13:45:53;4.03;;;1.50;;
5961;SDS011;3007;50.770;0.250;2023-08-07T13:48:20;3.70;;;1.50;;
5961;SDS011;3007;50.770;0.250;2023-08-07T13:50:51;4.25;;;1.63;;
5961;SDS011;3007;50.770;0.250;2023-08-07T13:53:19;4.38;;;1.60;;
5961;SDS011;3007;50.770;0.250;2023-08-07T13:55:49;4.55;;;1.77;;
5961;SDS011;3007;50.770;0.250;2023-08-07T13:58:15;3.95;;;1.60;;
5961;SDS011;3007;50.770;0.250;2023-08-07T14:00:42;5.40;;;2.00;;
5961;SDS011;3007;50.770;0.250;2023-08-07T14:03:09;4.30;;;1.52;;
5961;SDS011;3007;50.770;0.250;2023-08-07T14:05:37;4.35;;;1.60;;
5961;SDS011;3007;50.770;0.250;2023-08-07T14:08:04;3.33;;;1.50;;
5961;SDS011;3007;50.770;0.250;2023-08-07T14:10:32;3.83;;;1.60;;
5961;SDS011;3007;50.770;0.250;2023-08-07T14:13:01;3.58;;;1.42;;
5961;SDS011;3007;50.770;0.250;2023-08-07T14:15:28;3.20;;;1.30;;
5961;SDS011;3007;50.770;0.250;2023-08-07T14:17:55;2.97;;;1.20;;
5961;SDS011;3007;50.770;0.250;2023-08-07T14:20:22;5.35;;;2.00;;
5961;SDS011;3007;50.770;0.250;2023-08-07T14:22:49;3.50;;;1.55;;
5961;SDS011;3007;50.770;0.250;2023-08-07T14:25:16;6.97;;;1.60;;
5961;SDS011;3007;50.770;0.250;2023-08-07T14:27:44;6.00;;;2.00;;
5961;SDS011;3007;50.770;0.250;2023-08-07T14:30:11;4.65;;;1.75;;
5961;SDS011;3007;50.770;0.250;2023-08-07T14:32:38;6.90;;;1.55;;
5961;SDS011;3007;50.770;0.250;2023-08-07T14:35:06;5.60;;;1.92;;
5961;SDS011;3007;50.770;0.250;2023-08-07T14:37:32;4.28;;;1.40;;
5961;SDS011;3007;50.770;0.250;2023-08-07T14:39:59;8.15;;;2.03;;
5961;SDS011;3007;50.770;0.250;2023-08-07T14:42:25;4.75;;;1.80;;
5961;SDS011;3007;50.770;0.250;2023-08-07T14:44:54;5.55;;;1.73;;
5961;SDS011;3007;50.770;0.250;2023-08-07T14:47:21;8.80;;;2.10;;
5961;SDS011;3007;50.770;0.250;2023-08-07T14:49:47;6.72;;;2.00;;
5961;SDS011;3007;50.770;0.250;2023-08-07T14:52:14;5.93;;;1.83;;
5961;SDS011;3007;50.770;0.250;2023-08-07T14:54:41;6.75;;;1.80;;
5961;SDS011;3007;50.770;0.250;2023-08-07T14:57:08;5.97;;;2.10;;
5961;SDS011;3007;50.770;0.250;2023-08-07T14:59:35;7.15;;;2.38;;
5961;SDS011;3007;50.770;0.250;2023-08-07T15:02:04;5.15;;;1.50;;
5961;SDS011;3007;50.770;0.250;2023-08-07T15:04:32;9.45;;;2.10;;
5961;SDS011;3007;50.770;0.250;2023-08-07T15:06:58;5.18;;;1.80;;
5961;SDS011;3007;50.770;0.250;2023-08-07T15:09:26;4.88;;;1.55;;
5961;SDS011;3007;50.770;0.250;2023-08-07T15:11:53;6.50;;;2.25;;
5961;SDS011;3007;50.770;0.250;2023-08-07T15:14:19;6.80;;;1.92;;
5961;SDS011;3007;50.770;0.250;2023-08-07T15:16:46;5.07;;;1.60;;
5961;SDS011;3007;50.770;0.250;2023-08-07T15:19:15;6.18;;;1.60;;